الصفحة الرئيسية
METAR-TAF:

METAR-TAF

مطار :

Longreach, أستراليا

دائرة عرض: 23-26-03S, خط طول: 144-16-49E, ارتفاع: 191 متر

مراقبة الطقس الحالي

تاريخ ووقت الإصدار 1ساعة و 13 دقيقة قبل الساعة 15:00UTC
ريح 13 عقدة من الجنوب الشرقي
درجة الحرارة 22°درجة مئوية
الرطوبة 33%
ضغط 1014 hPa
الرؤية 10 كم أو أكثر

METAR: YLRE 061500Z AUTO 14013KT 9999 // NCD 22/05 Q1014

زمن: 02:13 (16:13 UTC)


TAF: مفقودة

أرصاد الطقس والتوقعات من أكثر من 4000 مطار (تقارير الطقس للمطار METAR والتنبؤ بالطقس بالمطارTAF).

المحطات المتاحة هي النقط الصفراء والحمراء على الخريطة.

حرك المؤشر فوق النقطة لمعرفة اسم المحطة.

ثم انقر لمعرفة أرصاد وتوقعات الطقس.

لتغيير الخارطة: اضغط على الأزرار الخضراء مع رمز الصليب الأسود للتكبير. على الزر الأخضر مع شرطة للتصغير، أو على الأسهم الخضراء للخرائط المجاورة.


METAR-TAF: